sensor_id;sensor_type;location;lat;lon;timestamp;P1;durP1;ratioP1;P2;durP2;ratioP2
61978;SDS011;47938;48.176;16.414;2022-12-31T00:00:56;57.03;;;28.50;;
61978;SDS011;47938;48.176;16.414;2022-12-31T00:03:22;60.05;;;28.27;;
61978;SDS011;47938;48.176;16.414;2022-12-31T00:05:48;64.10;;;28.35;;
61978;SDS011;47938;48.176;16.414;2022-12-31T00:08:13;50.15;;;26.65;;
61978;SDS011;47938;48.176;16.414;2022-12-31T00:10:39;45.50;;;24.58;;
61978;SDS011;47938;48.176;16.414;2022-12-31T00:13:04;48.47;;;23.33;;
61978;SDS011;47938;48.176;16.414;2022-12-31T00:15:30;48.10;;;24.33;;
61978;SDS011;47938;48.176;16.414;2022-12-31T00:17:56;43.03;;;23.85;;
61978;SDS011;47938;48.176;16.414;2022-12-31T00:20:22;42.95;;;24.60;;
61978;SDS011;47938;48.176;16.414;2022-12-31T00:22:47;41.67;;;23.00;;
61978;SDS011;47938;48.176;16.414;2022-12-31T00:25:13;44.70;;;24.60;;
61978;SDS011;47938;48.176;16.414;2022-12-31T00:27:39;48.80;;;25.52;;
61978;SDS011;47938;48.176;16.414;2022-12-31T00:30:04;48.03;;;24.88;;
61978;SDS011;47938;48.176;16.414;2022-12-31T00:32:30;46.75;;;24.30;;
61978;SDS011;47938;48.176;16.414;2022-12-31T00:34:56;47.80;;;25.40;;
61978;SDS011;47938;48.176;16.414;2022-12-31T00:37:21;52.47;;;25.45;;
61978;SDS011;47938;48.176;16.414;2022-12-31T00:39:47;44.58;;;23.60;;
61978;SDS011;47938;48.176;16.414;2022-12-31T00:42:13;44.38;;;24.00;;
61978;SDS011;47938;48.176;16.414;2022-12-31T00:44:38;51.00;;;26.67;;
61978;SDS011;47938;48.176;16.414;2022-12-31T00:47:04;46.67;;;24.67;;
61978;SDS011;47938;48.176;16.414;2022-12-31T00:49:29;48.03;;;26.00;;
61978;SDS011;47938;48.176;16.414;2022-12-31T00:51:55;50.75;;;26.23;;
61978;SDS011;47938;48.176;16.414;2022-12-31T00:54:21;43.22;;;23.95;;
61978;SDS011;47938;48.176;16.414;2022-12-31T00:56:46;49.55;;;25.33;;
61978;SDS011;47938;48.176;16.414;2022-12-31T00:59:12;44.33;;;25.10;;
61978;SDS011;47938;48.176;16.414;2022-12-31T01:01:38;43.42;;;24.63;;
61978;SDS011;47938;48.176;16.414;2022-12-31T01:04:05;46.83;;;25.10;;
61978;SDS011;47938;48.176;16.414;2022-12-31T01:06:36;53.03;;;25.60;;
61978;SDS011;47938;48.176;16.414;2022-12-31T01:09:02;53.20;;;25.08;;
61978;SDS011;47938;48.176;16.414;2022-12-31T01:11:28;56.78;;;25.85;;
61978;SDS011;47938;48.176;16.414;2022-12-31T01:13:55;66.22;;;24.90;;
61978;SDS011;47938;48.176;16.414;2022-12-31T01:16:27;53.13;;;24.35;;
61978;SDS011;47938;48.176;16.414;2022-12-31T01:21:24;42.75;;;23.10;;
61978;SDS011;47938;48.176;16.414;2022-12-31T01:23:50;42.42;;;23.40;;
61978;SDS011;47938;48.176;16.414;2022-12-31T01:26:16;43.05;;;23.65;;
61978;SDS011;47938;48.176;16.414;2022-12-31T01:28:42;41.90;;;23.67;;
61978;SDS011;47938;48.176;16.414;2022-12-31T01:31:10;42.70;;;24.90;;
61978;SDS011;47938;48.176;16.414;2022-12-31T01:33:37;41.75;;;23.15;;
61978;SDS011;47938;48.176;16.414;2022-12-31T01:36:04;40.50;;;22.27;;
61978;SDS011;47938;48.176;16.414;2022-12-31T01:38:36;30.88;;;20.45;;
61978;SDS011;47938;48.176;16.414;2022-12-31T01:41:02;37.42;;;22.30;;
61978;SDS011;47938;48.176;16.414;2022-12-31T01:46:14;35.17;;;21.50;;
61978;SDS011;47938;48.176;16.414;2022-12-31T01:48:48;36.25;;;20.40;;
61978;SDS011;47938;48.176;16.414;2022-12-31T01:51:16;34.78;;;21.27;;
61978;SDS011;47938;48.176;16.414;2022-12-31T01:53:43;34.85;;;21.48;;
61978;SDS011;47938;48.176;16.414;2022-12-31T01:56:09;31.75;;;21.40;;
61978;SDS011;47938;48.176;16.414;2022-12-31T01:58:36;31.23;;;19.42;;
61978;SDS011;47938;48.176;16.414;2022-12-31T02:01:04;33.33;;;20.80;;
61978;SDS011;47938;48.176;16.414;2022-12-31T02:03:32;31.75;;;20.23;;
61978;SDS011;47938;48.176;16.414;2022-12-31T02:06:17;33.35;;;20.23;;
61978;SDS011;47938;48.176;16.414;2022-12-31T02:08:46;33.65;;;19.98;;
61978;SDS011;47938;48.176;16.414;2022-12-31T02:11:20;34.90;;;20.95;;
61978;SDS011;47938;48.176;16.414;2022-12-31T02:13:57;34.38;;;21.48;;
61978;SDS011;47938;48.176;16.414;2022-12-31T02:19:05;34.35;;;21.10;;
61978;SDS011;47938;48.176;16.414;2022-12-31T02:30:03;31.67;;;20.75;;
61978;SDS011;47938;48.176;16.414;2022-12-31T02:35:15;33.55;;;20.25;;
61978;SDS011;47938;48.176;16.414;2022-12-31T02:37:55;32.50;;;20.85;;
61978;SDS011;47938;48.176;16.414;2022-12-31T02:40:28;35.50;;;22.27;;
61978;SDS011;47938;48.176;16.414;2022-12-31T02:42:57;36.65;;;21.00;;
61978;SDS011;47938;48.176;16.414;2022-12-31T02:45:26;35.08;;;21.70;;
61978;SDS011;47938;48.176;16.414;2022-12-31T02:48:12;36.45;;;22.67;;
61978;SDS011;47938;48.176;16.414;2022-12-31T02:53:54;34.00;;;21.25;;
61978;SDS011;47938;48.176;16.414;2022-12-31T02:57:04;35.63;;;21.85;;
61978;SDS011;47938;48.176;16.414;2022-12-31T02:59:37;35.65;;;21.25;;
61978;SDS011;47938;48.176;16.414;2022-12-31T03:02:05;36.28;;;22.83;;
61978;SDS011;47938;48.176;16.414;2022-12-31T03:04:36;36.35;;;22.67;;
61978;SDS011;47938;48.176;16.414;2022-12-31T03:07:03;33.97;;;20.55;;
61978;SDS011;47938;48.176;16.414;2022-12-31T03:09:35;37.13;;;22.75;;
61978;SDS011;47938;48.176;16.414;2022-12-31T03:12:01;35.58;;;21.05;;
61978;SDS011;47938;48.176;16.414;2022-12-31T03:14:29;30.88;;;19.80;;
61978;SDS011;47938;48.176;16.414;2022-12-31T03:16:55;33.88;;;20.48;;
61978;SDS011;47938;48.176;16.414;2022-12-31T03:19:20;32.75;;;20.65;;
61978;SDS011;47938;48.176;16.414;2022-12-31T03:21:46;30.70;;;20.40;;
61978;SDS011;47938;48.176;16.414;2022-12-31T03:24:11;32.20;;;20.63;;
61978;SDS011;47938;48.176;16.414;2022-12-31T03:26:37;27.70;;;18.23;;
61978;SDS011;47938;48.176;16.414;2022-12-31T03:29:03;30.83;;;19.73;;
61978;SDS011;47938;48.176;16.414;2022-12-31T03:31:28;31.13;;;20.10;;
61978;SDS011;47938;48.176;16.414;2022-12-31T03:33:54;29.00;;;19.50;;
61978;SDS011;47938;48.176;16.414;2022-12-31T03:36:19;28.33;;;20.25;;
61978;SDS011;47938;48.176;16.414;2022-12-31T03:38:45;28.85;;;20.17;;
61978;SDS011;47938;48.176;16.414;2022-12-31T03:41:11;31.88;;;19.33;;
61978;SDS011;47938;48.176;16.414;2022-12-31T03:43:36;31.02;;;19.55;;
61978;SDS011;47938;48.176;16.414;2022-12-31T03:46:02;33.83;;;21.48;;
61978;SDS011;47938;48.176;16.414;2022-12-31T03:48:28;28.95;;;20.17;;
61978;SDS011;47938;48.176;16.414;2022-12-31T03:50:53;31.10;;;20.83;;
61978;SDS011;47938;48.176;16.414;2022-12-31T03:53:19;31.05;;;20.17;;
61978;SDS011;47938;48.176;16.414;2022-12-31T03:55:44;29.60;;;20.02;;
61978;SDS011;47938;48.176;16.414;2022-12-31T03:58:15;34.38;;;21.02;;
61978;SDS011;47938;48.176;16.414;2022-12-31T04:00:40;36.20;;;21.63;;
61978;SDS011;47938;48.176;16.414;2022-12-31T04:03:06;31.75;;;20.58;;
61978;SDS011;47938;48.176;16.414;2022-12-31T04:05:32;32.92;;;21.58;;
61978;SDS011;47938;48.176;16.414;2022-12-31T04:07:57;31.40;;;20.92;;
61978;SDS011;47938;48.176;16.414;2022-12-31T04:10:23;29.70;;;19.92;;
61978;SDS011;47938;48.176;16.414;2022-12-31T04:12:49;32.50;;;19.98;;
61978;SDS011;47938;48.176;16.414;2022-12-31T04:15:18;31.42;;;19.98;;
61978;SDS011;47938;48.176;16.414;2022-12-31T04:17:45;29.60;;;19.25;;
61978;SDS011;47938;48.176;16.414;2022-12-31T04:20:11;29.52;;;19.20;;
61978;SDS011;47938;48.176;16.414;2022-12-31T04:22:37;33.10;;;19.50;;
61978;SDS011;47938;48.176;16.414;2022-12-31T04:25:04;29.73;;;19.98;;
61978;SDS011;47938;48.176;16.414;2022-12-31T04:27:31;29.63;;;19.05;;
61978;SDS011;47938;48.176;16.414;2022-12-31T04:29:57;26.58;;;18.40;;
61978;SDS011;47938;48.176;16.414;2022-12-31T04:32:22;30.27;;;19.17;;
61978;SDS011;47938;48.176;16.414;2022-12-31T04:34:48;30.70;;;19.27;;
61978;SDS011;47938;48.176;16.414;2022-12-31T04:37:13;30.58;;;19.45;;
61978;SDS011;47938;48.176;16.414;2022-12-31T04:39:39;30.75;;;19.48;;
61978;SDS011;47938;48.176;16.414;2022-12-31T04:42:05;27.88;;;19.13;;
61978;SDS011;47938;48.176;16.414;2022-12-31T04:44:30;27.90;;;19.15;;
61978;SDS011;47938;48.176;16.414;2022-12-31T04:46:56;30.25;;;20.02;;
61978;SDS011;47938;48.176;16.414;2022-12-31T04:49:21;30.98;;;19.05;;
61978;SDS011;47938;48.176;16.414;2022-12-31T04:51:47;30.30;;;19.58;;
61978;SDS011;47938;48.176;16.414;2022-12-31T04:54:13;31.40;;;19.80;;
61978;SDS011;47938;48.176;16.414;2022-12-31T04:56:38;29.25;;;19.98;;
61978;SDS011;47938;48.176;16.414;2022-12-31T04:59:04;31.80;;;19.70;;
61978;SDS011;47938;48.176;16.414;2022-12-31T05:01:30;33.38;;;20.35;;
61978;SDS011;47938;48.176;16.414;2022-12-31T05:03:55;30.90;;;19.33;;
61978;SDS011;47938;48.176;16.414;2022-12-31T05:06:21;31.38;;;20.08;;
61978;SDS011;47938;48.176;16.414;2022-12-31T05:08:47;29.42;;;19.35;;
61978;SDS011;47938;48.176;16.414;2022-12-31T05:11:14;31.67;;;20.45;;
61978;SDS011;47938;48.176;16.414;2022-12-31T05:13:40;29.75;;;19.42;;
61978;SDS011;47938;48.176;16.414;2022-12-31T05:16:06;29.30;;;19.65;;
61978;SDS011;47938;48.176;16.414;2022-12-31T05:18:32;25.27;;;17.83;;
61978;SDS011;47938;48.176;16.414;2022-12-31T05:20:58;30.10;;;19.58;;
61978;SDS011;47938;48.176;16.414;2022-12-31T05:23:24;29.42;;;19.20;;
61978;SDS011;47938;48.176;16.414;2022-12-31T05:25:50;25.88;;;18.52;;
61978;SDS011;47938;48.176;16.414;2022-12-31T05:28:16;28.92;;;17.23;;
61978;SDS011;47938;48.176;16.414;2022-12-31T05:30:42;27.85;;;18.27;;
61978;SDS011;47938;48.176;16.414;2022-12-31T05:33:09;23.67;;;17.52;;
61978;SDS011;47938;48.176;16.414;2022-12-31T05:35:34;23.75;;;15.77;;
61978;SDS011;47938;48.176;16.414;2022-12-31T05:38:00;26.02;;;17.88;;
61978;SDS011;47938;48.176;16.414;2022-12-31T05:40:26;21.88;;;16.05;;
61978;SDS011;47938;48.176;16.414;2022-12-31T05:42:52;21.48;;;15.75;;
61978;SDS011;47938;48.176;16.414;2022-12-31T05:45:18;22.77;;;16.17;;
61978;SDS011;47938;48.176;16.414;2022-12-31T05:47:43;21.45;;;17.20;;
61978;SDS011;47938;48.176;16.414;2022-12-31T05:50:10;23.58;;;16.88;;
61978;SDS011;47938;48.176;16.414;2022-12-31T05:52:37;22.02;;;15.70;;
61978;SDS011;47938;48.176;16.414;2022-12-31T05:55:03;22.33;;;16.55;;
61978;SDS011;47938;48.176;16.414;2022-12-31T05:57:29;21.10;;;15.77;;
61978;SDS011;47938;48.176;16.414;2022-12-31T05:59:54;23.13;;;15.73;;
61978;SDS011;47938;48.176;16.414;2022-12-31T06:02:20;22.38;;;16.05;;
61978;SDS011;47938;48.176;16.414;2022-12-31T06:04:47;23.60;;;15.55;;
61978;SDS011;47938;48.176;16.414;2022-12-31T06:07:13;21.75;;;16.27;;
61978;SDS011;47938;48.176;16.414;2022-12-31T06:09:39;20.67;;;15.48;;
61978;SDS011;47938;48.176;16.414;2022-12-31T06:12:04;24.38;;;16.73;;
61978;SDS011;47938;48.176;16.414;2022-12-31T06:14:30;27.42;;;16.85;;
61978;SDS011;47938;48.176;16.414;2022-12-31T06:16:56;23.23;;;15.98;;
61978;SDS011;47938;48.176;16.414;2022-12-31T06:19:22;19.65;;;15.30;;
61978;SDS011;47938;48.176;16.414;2022-12-31T06:21:48;22.52;;;16.08;;
61978;SDS011;47938;48.176;16.414;2022-12-31T06:24:14;22.02;;;16.52;;
61978;SDS011;47938;48.176;16.414;2022-12-31T06:26:39;23.13;;;16.52;;
61978;SDS011;47938;48.176;16.414;2022-12-31T06:29:05;22.30;;;16.58;;
61978;SDS011;47938;48.176;16.414;2022-12-31T06:31:31;26.52;;;17.15;;
61978;SDS011;47938;48.176;16.414;2022-12-31T06:33:57;19.38;;;14.75;;
61978;SDS011;47938;48.176;16.414;2022-12-31T06:36:22;21.98;;;16.60;;
61978;SDS011;47938;48.176;16.414;2022-12-31T06:38:48;22.33;;;16.27;;
61978;SDS011;47938;48.176;16.414;2022-12-31T06:41:14;23.65;;;17.02;;
61978;SDS011;47938;48.176;16.414;2022-12-31T06:43:41;23.02;;;16.80;;
61978;SDS011;47938;48.176;16.414;2022-12-31T06:46:08;21.25;;;16.95;;
61978;SDS011;47938;48.176;16.414;2022-12-31T06:48:35;22.63;;;17.13;;
61978;SDS011;47938;48.176;16.414;2022-12-31T06:51:05;24.63;;;17.30;;
61978;SDS011;47938;48.176;16.414;2022-12-31T06:53:32;24.13;;;17.90;;
61978;SDS011;47938;48.176;16.414;2022-12-31T06:56:03;21.20;;;16.38;;
61978;SDS011;47938;48.176;16.414;2022-12-31T06:58:33;21.45;;;17.50;;
61978;SDS011;47938;48.176;16.414;2022-12-31T07:06:16;22.38;;;16.85;;
61978;SDS011;47938;48.176;16.414;2022-12-31T07:11:56;25.85;;;18.20;;
61978;SDS011;47938;48.176;16.414;2022-12-31T07:14:41;22.20;;;16.45;;
61978;SDS011;47938;48.176;16.414;2022-12-31T07:20:00;25.52;;;17.33;;
61978;SDS011;47938;48.176;16.414;2022-12-31T07:22:29;23.05;;;16.73;;
61978;SDS011;47938;48.176;16.414;2022-12-31T07:24:55;25.30;;;17.30;;
61978;SDS011;47938;48.176;16.414;2022-12-31T07:30:15;26.27;;;18.33;;
61978;SDS011;47938;48.176;16.414;2022-12-31T07:32:54;26.70;;;16.50;;
61978;SDS011;47938;48.176;16.414;2022-12-31T07:38:52;24.33;;;17.13;;
61978;SDS011;47938;48.176;16.414;2022-12-31T07:44:40;23.58;;;16.92;;
61978;SDS011;47938;48.176;16.414;2022-12-31T07:47:21;24.83;;;17.50;;
61978;SDS011;47938;48.176;16.414;2022-12-31T07:49:51;22.23;;;17.38;;
61978;SDS011;47938;48.176;16.414;2022-12-31T07:52:18;25.35;;;17.48;;
61978;SDS011;47938;48.176;16.414;2022-12-31T07:54:44;22.45;;;17.85;;
61978;SDS011;47938;48.176;16.414;2022-12-31T07:57:13;21.30;;;15.95;;
61978;SDS011;47938;48.176;16.414;2022-12-31T08:08:35;27.73;;;17.27;;
61978;SDS011;47938;48.176;16.414;2022-12-31T08:11:15;26.05;;;16.15;;
61978;SDS011;47938;48.176;16.414;2022-12-31T08:13:42;29.58;;;17.60;;
61978;SDS011;47938;48.176;16.414;2022-12-31T08:16:10;26.95;;;17.25;;
61978;SDS011;47938;48.176;16.414;2022-12-31T08:18:37;27.13;;;17.48;;
61978;SDS011;47938;48.176;16.414;2022-12-31T08:21:10;25.70;;;17.52;;
61978;SDS011;47938;48.176;16.414;2022-12-31T08:26:22;27.23;;;17.48;;
61978;SDS011;47938;48.176;16.414;2022-12-31T08:37:12;24.55;;;16.92;;
61978;SDS011;47938;48.176;16.414;2022-12-31T08:40:05;28.95;;;18.50;;
61978;SDS011;47938;48.176;16.414;2022-12-31T08:45:34;25.50;;;17.60;;
61978;SDS011;47938;48.176;16.414;2022-12-31T08:50:53;30.45;;;19.50;;
61978;SDS011;47938;48.176;16.414;2022-12-31T08:53:19;24.80;;;17.10;;
61978;SDS011;47938;48.176;16.414;2022-12-31T08:55:45;25.05;;;17.67;;
61978;SDS011;47938;48.176;16.414;2022-12-31T09:01:04;28.02;;;18.92;;
61978;SDS011;47938;48.176;16.414;2022-12-31T09:03:43;28.17;;;18.38;;
61978;SDS011;47938;48.176;16.414;2022-12-31T09:06:31;24.77;;;17.17;;
61978;SDS011;47938;48.176;16.414;2022-12-31T09:17:17;23.42;;;17.50;;
61978;SDS011;47938;48.176;16.414;2022-12-31T09:19:49;23.73;;;17.85;;
61978;SDS011;47938;48.176;16.414;2022-12-31T09:22:15;30.10;;;19.38;;
61978;SDS011;47938;48.176;16.414;2022-12-31T09:24:41;26.65;;;18.50;;
61978;SDS011;47938;48.176;16.414;2022-12-31T09:27:17;27.33;;;18.85;;
61978;SDS011;47938;48.176;16.414;2022-12-31T09:30:04;25.95;;;18.27;;
61978;SDS011;47938;48.176;16.414;2022-12-31T09:34:59;26.73;;;17.98;;
61978;SDS011;47938;48.176;16.414;2022-12-31T09:45:56;26.08;;;18.70;;
61978;SDS011;47938;48.176;16.414;2022-12-31T09:52:03;24.05;;;18.48;;
61978;SDS011;47938;48.176;16.414;2022-12-31T10:11:47;23.73;;;17.25;;
61978;SDS011;47938;48.176;16.414;2022-12-31T10:14:38;24.10;;;17.70;;
61978;SDS011;47938;48.176;16.414;2022-12-31T10:19:42;27.80;;;18.08;;
61978;SDS011;47938;48.176;16.414;2022-12-31T10:33:51;23.98;;;16.70;;
61978;SDS011;47938;48.176;16.414;2022-12-31T10:36:37;22.17;;;15.80;;
61978;SDS011;47938;48.176;16.414;2022-12-31T10:39:32;20.80;;;15.75;;
61978;SDS011;47938;48.176;16.414;2022-12-31T10:47:45;24.85;;;16.92;;
61978;SDS011;47938;48.176;16.414;2022-12-31T11:08:36;20.45;;;14.52;;
61978;SDS011;47938;48.176;16.414;2022-12-31T11:19:50;24.27;;;16.25;;
61978;SDS011;47938;48.176;16.414;2022-12-31T11:28:28;24.25;;;18.10;;
61978;SDS011;47938;48.176;16.414;2022-12-31T11:42:15;24.50;;;17.77;;
61978;SDS011;47938;48.176;16.414;2022-12-31T11:45:03;20.70;;;16.10;;
61978;SDS011;47938;48.176;16.414;2022-12-31T11:47:51;25.33;;;16.73;;
61978;SDS011;47938;48.176;16.414;2022-12-31T11:56:18;22.58;;;17.02;;
61978;SDS011;47938;48.176;16.414;2022-12-31T11:58:48;21.90;;;15.85;;
61978;SDS011;47938;48.176;16.414;2022-12-31T12:04:17;21.23;;;16.42;;
61978;SDS011;47938;48.176;16.414;2022-12-31T12:06:42;20.95;;;15.27;;
61978;SDS011;47938;48.176;16.414;2022-12-31T12:09:15;20.38;;;16.33;;
61978;SDS011;47938;48.176;16.414;2022-12-31T12:12:01;24.15;;;17.02;;
61978;SDS011;47938;48.176;16.414;2022-12-31T12:17:02;27.02;;;18.83;;
61978;SDS011;47938;48.176;16.414;2022-12-31T12:19:32;20.35;;;15.82;;
61978;SDS011;47938;48.176;16.414;2022-12-31T12:21:58;20.42;;;16.48;;
61978;SDS011;47938;48.176;16.414;2022-12-31T12:24:34;21.73;;;16.05;;
61978;SDS011;47938;48.176;16.414;2022-12-31T12:27:00;22.13;;;16.30;;
61978;SDS011;47938;48.176;16.414;2022-12-31T12:29:27;20.40;;;15.85;;
61978;SDS011;47938;48.176;16.414;2022-12-31T12:36:53;19.75;;;15.48;;
61978;SDS011;47938;48.176;16.414;2022-12-31T12:39:20;19.55;;;15.73;;
61978;SDS011;47938;48.176;16.414;2022-12-31T12:41:58;20.85;;;15.65;;
61978;SDS011;47938;48.176;16.414;2022-12-31T12:44:32;24.85;;;15.73;;
61978;SDS011;47938;48.176;16.414;2022-12-31T12:46:58;24.58;;;17.92;;
61978;SDS011;47938;48.176;16.414;2022-12-31T13:00:19;24.33;;;17.10;;
61978;SDS011;47938;48.176;16.414;2022-12-31T13:22:07;24.58;;;17.70;;
61978;SDS011;47938;48.176;16.414;2022-12-31T13:27:43;22.92;;;16.95;;
61978;SDS011;47938;48.176;16.414;2022-12-31T13:30:13;25.42;;;17.33;;
61978;SDS011;47938;48.176;16.414;2022-12-31T13:35:32;25.05;;;17.90;;
61978;SDS011;47938;48.176;16.414;2022-12-31T13:38:08;23.85;;;17.95;;
61978;SDS011;47938;48.176;16.414;2022-12-31T13:40:48;26.38;;;17.98;;
61978;SDS011;47938;48.176;16.414;2022-12-31T13:46:14;25.02;;;18.13;;
61978;SDS011;47938;48.176;16.414;2022-12-31T13:48:57;27.80;;;18.40;;
61978;SDS011;47938;48.176;16.414;2022-12-31T13:51:39;24.98;;;17.63;;
61978;SDS011;47938;48.176;16.414;2022-12-31T13:57:09;29.85;;;18.65;;
61978;SDS011;47938;48.176;16.414;2022-12-31T13:59:45;27.90;;;18.48;;
61978;SDS011;47938;48.176;16.414;2022-12-31T14:07:37;27.40;;;19.63;;
61978;SDS011;47938;48.176;16.414;2022-12-31T14:10:13;29.42;;;20.38;;
61978;SDS011;47938;48.176;16.414;2022-12-31T14:15:14;27.60;;;20.10;;
61978;SDS011;47938;48.176;16.414;2022-12-31T14:18:19;27.63;;;21.10;;
61978;SDS011;47938;48.176;16.414;2022-12-31T14:21:13;27.10;;;18.77;;
61978;SDS011;47938;48.176;16.414;2022-12-31T14:26:29;28.30;;;20.40;;
61978;SDS011;47938;48.176;16.414;2022-12-31T14:37:08;28.42;;;20.15;;
61978;SDS011;47938;48.176;16.414;2022-12-31T14:39:58;26.95;;;18.27;;
61978;SDS011;47938;48.176;16.414;2022-12-31T14:42:51;26.42;;;20.00;;
61978;SDS011;47938;48.176;16.414;2022-12-31T14:45:43;27.52;;;19.00;;
61978;SDS011;47938;48.176;16.414;2022-12-31T14:51:09;36.05;;;25.70;;
61978;SDS011;47938;48.176;16.414;2022-12-31T14:53:36;40.15;;;28.75;;
61978;SDS011;47938;48.176;16.414;2022-12-31T14:56:03;27.42;;;19.33;;
61978;SDS011;47938;48.176;16.414;2022-12-31T14:58:30;27.65;;;18.13;;
61978;SDS011;47938;48.176;16.414;2022-12-31T15:01:02;27.95;;;20.33;;
61978;SDS011;47938;48.176;16.414;2022-12-31T15:09:13;25.00;;;19.70;;
61978;SDS011;47938;48.176;16.414;2022-12-31T15:11:54;32.67;;;23.38;;
61978;SDS011;47938;48.176;16.414;2022-12-31T15:20:13;23.98;;;17.40;;
61978;SDS011;47938;48.176;16.414;2022-12-31T15:23:12;35.17;;;25.27;;
61978;SDS011;47938;48.176;16.414;2022-12-31T15:25:47;33.10;;;23.38;;
61978;SDS011;47938;48.176;16.414;2022-12-31T15:30:56;26.73;;;18.95;;
61978;SDS011;47938;48.176;16.414;2022-12-31T15:33:31;26.73;;;18.55;;
61978;SDS011;47938;48.176;16.414;2022-12-31T15:36:17;24.58;;;19.08;;
61978;SDS011;47938;48.176;16.414;2022-12-31T15:38:45;30.73;;;21.25;;
61978;SDS011;47938;48.176;16.414;2022-12-31T15:41:13;33.40;;;23.33;;
61978;SDS011;47938;48.176;16.414;2022-12-31T15:43:39;31.92;;;24.20;;
61978;SDS011;47938;48.176;16.414;2022-12-31T15:49:10;33.72;;;23.67;;
61978;SDS011;47938;48.176;16.414;2022-12-31T15:54:34;39.38;;;26.42;;
61978;SDS011;47938;48.176;16.414;2022-12-31T15:57:05;34.00;;;24.67;;
61978;SDS011;47938;48.176;16.414;2022-12-31T15:59:50;36.13;;;25.60;;
61978;SDS011;47938;48.176;16.414;2022-12-31T16:04:48;36.95;;;24.67;;
61978;SDS011;47938;48.176;16.414;2022-12-31T16:07:14;32.65;;;22.35;;
61978;SDS011;47938;48.176;16.414;2022-12-31T16:09:41;26.60;;;19.40;;
61978;SDS011;47938;48.176;16.414;2022-12-31T16:12:14;28.50;;;20.63;;
61978;SDS011;47938;48.176;16.414;2022-12-31T16:14:52;28.03;;;20.07;;
61978;SDS011;47938;48.176;16.414;2022-12-31T16:17:40;27.63;;;20.13;;
61978;SDS011;47938;48.176;16.414;2022-12-31T16:20:22;24.75;;;19.05;;
61978;SDS011;47938;48.176;16.414;2022-12-31T16:22:50;26.75;;;19.23;;
61978;SDS011;47938;48.176;16.414;2022-12-31T16:25:18;30.45;;;21.50;;
61978;SDS011;47938;48.176;16.414;2022-12-31T16:27:44;29.92;;;21.38;;
61978;SDS011;47938;48.176;16.414;2022-12-31T16:30:31;38.55;;;26.63;;
61978;SDS011;47938;48.176;16.414;2022-12-31T16:32:59;30.77;;;21.55;;
61978;SDS011;47938;48.176;16.414;2022-12-31T16:35:30;35.42;;;25.95;;
61978;SDS011;47938;48.176;16.414;2022-12-31T16:40:37;33.25;;;22.40;;
61978;SDS011;47938;48.176;16.414;2022-12-31T16:43:17;32.40;;;22.90;;
61978;SDS011;47938;48.176;16.414;2022-12-31T16:45:56;33.03;;;24.45;;
61978;SDS011;47938;48.176;16.414;2022-12-31T16:48:31;30.73;;;23.38;;
61978;SDS011;47938;48.176;16.414;2022-12-31T16:50:57;29.25;;;22.00;;
61978;SDS011;47938;48.176;16.414;2022-12-31T16:53:23;30.27;;;22.17;;
61978;SDS011;47938;48.176;16.414;2022-12-31T16:55:55;32.15;;;24.42;;
61978;SDS011;47938;48.176;16.414;2022-12-31T16:58:29;37.15;;;24.98;;
61978;SDS011;47938;48.176;16.414;2022-12-31T17:01:22;32.47;;;24.42;;
61978;SDS011;47938;48.176;16.414;2022-12-31T17:03:50;40.53;;;25.92;;
61978;SDS011;47938;48.176;16.414;2022-12-31T17:06:20;35.83;;;23.37;;
61978;SDS011;47938;48.176;16.414;2022-12-31T17:09:03;30.40;;;22.58;;
61978;SDS011;47938;48.176;16.414;2022-12-31T17:11:41;37.80;;;23.83;;
61978;SDS011;47938;48.176;16.414;2022-12-31T17:14:24;36.33;;;23.23;;
61978;SDS011;47938;48.176;16.414;2022-12-31T17:19:41;29.67;;;21.73;;
61978;SDS011;47938;48.176;16.414;2022-12-31T17:22:08;29.23;;;20.77;;
61978;SDS011;47938;48.176;16.414;2022-12-31T17:24:48;32.08;;;22.90;;
61978;SDS011;47938;48.176;16.414;2022-12-31T17:27:14;29.90;;;21.60;;
61978;SDS011;47938;48.176;16.414;2022-12-31T17:29:41;30.33;;;21.45;;
61978;SDS011;47938;48.176;16.414;2022-12-31T17:32:40;29.98;;;23.13;;
61978;SDS011;47938;48.176;16.414;2022-12-31T17:35:01;33.53;;;21.35;;
61978;SDS011;47938;48.176;16.414;2022-12-31T17:37:47;30.08;;;21.20;;
61978;SDS011;47938;48.176;16.414;2022-12-31T17:40:34;30.58;;;22.27;;
61978;SDS011;47938;48.176;16.414;2022-12-31T17:43:02;29.38;;;21.67;;
61978;SDS011;47938;48.176;16.414;2022-12-31T17:45:29;32.33;;;23.23;;
61978;SDS011;47938;48.176;16.414;2022-12-31T17:48:00;30.65;;;23.48;;
61978;SDS011;47938;48.176;16.414;2022-12-31T17:50:26;37.83;;;25.17;;
61978;SDS011;47938;48.176;16.414;2022-12-31T17:53:07;33.42;;;24.55;;
61978;SDS011;47938;48.176;16.414;2022-12-31T17:55:35;41.17;;;25.73;;
61978;SDS011;47938;48.176;16.414;2022-12-31T17:58:02;34.15;;;25.95;;
61978;SDS011;47938;48.176;16.414;2022-12-31T18:00:29;37.70;;;26.45;;
61978;SDS011;47938;48.176;16.414;2022-12-31T18:02:55;41.22;;;30.13;;
61978;SDS011;47938;48.176;16.414;2022-12-31T18:05:21;41.92;;;29.05;;
61978;SDS011;47938;48.176;16.414;2022-12-31T18:07:47;41.65;;;28.45;;
61978;SDS011;47938;48.176;16.414;2022-12-31T18:10:13;40.65;;;26.15;;
61978;SDS011;47938;48.176;16.414;2022-12-31T18:12:41;38.97;;;26.80;;
61978;SDS011;47938;48.176;16.414;2022-12-31T18:15:12;39.78;;;27.98;;
61978;SDS011;47938;48.176;16.414;2022-12-31T18:17:45;35.33;;;24.13;;
61978;SDS011;47938;48.176;16.414;2022-12-31T18:20:11;39.08;;;27.38;;
61978;SDS011;47938;48.176;16.414;2022-12-31T18:22:38;35.05;;;25.95;;
61978;SDS011;47938;48.176;16.414;2022-12-31T18:25:05;39.53;;;28.52;;
61978;SDS011;47938;48.176;16.414;2022-12-31T18:27:32;41.35;;;29.35;;
61978;SDS011;47938;48.176;16.414;2022-12-31T18:29:57;39.20;;;28.38;;
61978;SDS011;47938;48.176;16.414;2022-12-31T18:32:24;42.88;;;29.65;;
61978;SDS011;47938;48.176;16.414;2022-12-31T18:34:51;42.63;;;28.33;;
61978;SDS011;47938;48.176;16.414;2022-12-31T18:37:17;193.02;;;133.20;;
61978;SDS011;47938;48.176;16.414;2022-12-31T18:39:44;141.75;;;96.03;;
61978;SDS011;47938;48.176;16.414;2022-12-31T18:42:11;72.40;;;50.33;;
61978;SDS011;47938;48.176;16.414;2022-12-31T18:44:41;59.63;;;39.25;;
61978;SDS011;47938;48.176;16.414;2022-12-31T18:47:17;53.33;;;34.92;;
61978;SDS011;47938;48.176;16.414;2022-12-31T18:49:44;85.18;;;53.20;;
61978;SDS011;47938;48.176;16.414;2022-12-31T18:52:17;65.15;;;44.10;;
61978;SDS011;47938;48.176;16.414;2022-12-31T18:54:44;87.90;;;61.45;;
61978;SDS011;47938;48.176;16.414;2022-12-31T18:57:10;88.80;;;61.53;;
61978;SDS011;47938;48.176;16.414;2022-12-31T18:59:38;91.68;;;61.60;;
61978;SDS011;47938;48.176;16.414;2022-12-31T19:02:04;85.00;;;56.45;;
61978;SDS011;47938;48.176;16.414;2022-12-31T19:04:38;72.72;;;50.10;;
61978;SDS011;47938;48.176;16.414;2022-12-31T19:07:03;73.10;;;48.90;;
61978;SDS011;47938;48.176;16.414;2022-12-31T19:09:29;63.60;;;42.10;;